^^

Nearby METAR Reports

 

EGNV - Tees-Side, United Kingdom
Distance from station: E 6mi, 10km
Updated: 19/04/2024 21:50
NOT Current
Clear
Clear
 Wind from NNW
Wind: NNW 7 mph, 11 km/h
Temperature: 5°C
Wind Chill: 2°C
Dew Point: 0°C
Humidity: 70%
Barometer: 1024 hPa
Summary: Clear
Visibility: greater than 7 miles, 10 km
2024/04/19 20:50 EGNV 192050Z 33006KT CAVOK 05/M00 Q1024
EGXE - Leeming Raf, United Kingdom
Distance from station: S 16mi, 25km
Updated: 20/04/2024 01:50
Clear
Clear
 Wind from WNW
Wind: WNW 8 mph, 13 km/h
Temperature: 2°C
Wind Chill: -1°C
Dew Point: -1°C
Humidity: 81%
Barometer: 1026 hPa
Clouds: Clear
Visibility: 6 miles, 10 km
2024/04/20 00:50 EGXE 200050Z AUTO 30007KT 9999 NCD 02/M01 Q1026
 
EGXZ - Topcliffe Raf, United Kingdom
Distance from station: SSE 23mi, 36km
Updated: 20/04/2024 01:50
Clear
Clear
 Wind from NW
Wind: NW 5 mph, 7 km/h
Temperature: 3°C
Wind Chill: 1°C
Dew Point: -1°C
Humidity: 75%
Barometer: 1026 hPa
Clouds: Clear
Visibility: 6 miles, 10 km
2024/04/20 00:50 EGXZ 200050Z AUTO 31004KT 9999 NCD 03/M01 Q1026
EGNT - Newcastle, United Kingdom
Distance from station: N 35mi, 57km
Updated: 20/04/2024 02:20
Clear
Clear
 Wind from N
Wind: N 5 mph, 7 km/h
Temperature: 1°C
Wind Chill: -2°C
Dew Point: -1°C
Humidity: 87%
Barometer: 1026 hPa
Summary: Clear
Visibility: greater than 7 miles, 10 km
2024/04/20 01:20 EGNT 200120Z 35004KT CAVOK 01/M01 Q1026
 
EGNM - Leeds And Bradfo, United Kingdom
Distance from station: S 44mi, 71km
Updated: 20/04/2024 02:20
Clear
Clear
 Wind from NW
Wind: NW 12 mph, 19 km/h
Temperature: 1°C
Wind Chill: -4°C
Dew Point: -2°C
Humidity: 81%
Barometer: 1026 hPa
Summary: Clear
Visibility: greater than 7 miles, 10 km
2024/04/20 01:20 EGNM 200120Z 31010KT CAVOK 01/M02 Q1026